sensor_id;sensor_type;location;lat;lon;timestamp;temperature;humidity
420;DHT22;42600;54.408;13.016;2023-07-30T00:00:53;18.40;92.70
420;DHT22;42600;54.408;13.016;2023-07-30T00:03:19;18.30;92.70
420;DHT22;42600;54.408;13.016;2023-07-30T00:05:52;18.30;92.70
420;DHT22;42600;54.408;13.016;2023-07-30T00:08:19;18.30;92.70
420;DHT22;42600;54.408;13.016;2023-07-30T00:10:45;18.30;92.70
420;DHT22;42600;54.408;13.016;2023-07-30T00:13:13;18.30;92.70
420;DHT22;42600;54.408;13.016;2023-07-30T00:15:40;18.30;92.70
420;DHT22;42600;54.408;13.016;2023-07-30T00:18:06;18.30;92.70
420;DHT22;42600;54.408;13.016;2023-07-30T00:20:34;18.20;92.70
420;DHT22;42600;54.408;13.016;2023-07-30T00:23:01;18.30;92.70
420;DHT22;42600;54.408;13.016;2023-07-30T00:25:28;18.20;92.70
420;DHT22;42600;54.408;13.016;2023-07-30T00:27:54;18.20;92.70
420;DHT22;42600;54.408;13.016;2023-07-30T00:30:22;18.20;92.70
420;DHT22;42600;54.408;13.016;2023-07-30T00:32:49;18.30;92.70
420;DHT22;42600;54.408;13.016;2023-07-30T00:35:15;18.20;92.70
420;DHT22;42600;54.408;13.016;2023-07-30T00:37:42;18.20;92.70
420;DHT22;42600;54.408;13.016;2023-07-30T00:40:09;18.20;92.70
420;DHT22;42600;54.408;13.016;2023-07-30T00:42:36;18.10;92.70
420;DHT22;42600;54.408;13.016;2023-07-30T00:45:03;18.20;92.70
420;DHT22;42600;54.408;13.016;2023-07-30T00:47:31;18.10;92.70
420;DHT22;42600;54.408;13.016;2023-07-30T00:49:58;18.10;92.70
420;DHT22;42600;54.408;13.016;2023-07-30T00:52:25;18.10;92.70
420;DHT22;42600;54.408;13.016;2023-07-30T00:54:54;18.10;92.70
420;DHT22;42600;54.408;13.016;2023-07-30T00:57:23;18.10;92.70
420;DHT22;42600;54.408;13.016;2023-07-30T00:59:50;18.10;92.70
420;DHT22;42600;54.408;13.016;2023-07-30T01:02:17;18.10;92.70
420;DHT22;42600;54.408;13.016;2023-07-30T01:04:45;18.10;92.70
420;DHT22;42600;54.408;13.016;2023-07-30T01:07:12;18.00;92.70
420;DHT22;42600;54.408;13.016;2023-07-30T01:09:39;18.00;92.70
420;DHT22;42600;54.408;13.016;2023-07-30T01:12:06;18.00;92.70
420;DHT22;42600;54.408;13.016;2023-07-30T01:14:33;17.90;92.70
420;DHT22;42600;54.408;13.016;2023-07-30T01:17:03;17.80;92.70
420;DHT22;42600;54.408;13.016;2023-07-30T01:19:30;17.70;92.70
420;DHT22;42600;54.408;13.016;2023-07-30T01:21:58;17.70;92.70
420;DHT22;42600;54.408;13.016;2023-07-30T01:24:24;17.50;92.70
420;DHT22;42600;54.408;13.016;2023-07-30T01:26:55;17.40;92.70
420;DHT22;42600;54.408;13.016;2023-07-30T01:29:27;17.40;92.70
420;DHT22;42600;54.408;13.016;2023-07-30T01:31:56;17.30;92.70
420;DHT22;42600;54.408;13.016;2023-07-30T01:34:24;17.40;92.70
420;DHT22;42600;54.408;13.016;2023-07-30T01:36:53;17.30;92.70
420;DHT22;42600;54.408;13.016;2023-07-30T01:39:22;17.30;92.70
420;DHT22;42600;54.408;13.016;2023-07-30T01:41:49;17.10;92.70
420;DHT22;42600;54.408;13.016;2023-07-30T01:44:15;17.00;92.70
420;DHT22;42600;54.408;13.016;2023-07-30T01:46:42;16.90;92.70
420;DHT22;42600;54.408;13.016;2023-07-30T01:49:09;16.80;92.70
420;DHT22;42600;54.408;13.016;2023-07-30T01:51:35;16.90;92.70
420;DHT22;42600;54.408;13.016;2023-07-30T01:54:02;16.90;92.70
420;DHT22;42600;54.408;13.016;2023-07-30T01:56:30;16.80;92.70
420;DHT22;42600;54.408;13.016;2023-07-30T01:58:57;16.80;92.70
420;DHT22;42600;54.408;13.016;2023-07-30T02:01:23;16.80;92.70
420;DHT22;42600;54.408;13.016;2023-07-30T02:03:50;16.80;92.70
420;DHT22;42600;54.408;13.016;2023-07-30T02:06:16;16.90;92.70
420;DHT22;42600;54.408;13.016;2023-07-30T02:08:43;16.80;92.70
420;DHT22;42600;54.408;13.016;2023-07-30T02:11:10;16.80;92.70
420;DHT22;42600;54.408;13.016;2023-07-30T02:14:02;16.80;92.70
420;DHT22;42600;54.408;13.016;2023-07-30T02:16:29;16.80;92.70
420;DHT22;42600;54.408;13.016;2023-07-30T02:18:56;16.80;92.70
420;DHT22;42600;54.408;13.016;2023-07-30T02:21:22;16.70;92.70
420;DHT22;42600;54.408;13.016;2023-07-30T02:23:49;16.70;92.70
420;DHT22;42600;54.408;13.016;2023-07-30T02:26:15;16.60;92.70
420;DHT22;42600;54.408;13.016;2023-07-30T02:28:42;16.80;92.70
420;DHT22;42600;54.408;13.016;2023-07-30T02:31:10;16.90;92.70
420;DHT22;42600;54.408;13.016;2023-07-30T02:33:36;17.00;92.70
420;DHT22;42600;54.408;13.016;2023-07-30T02:36:04;16.90;92.70
420;DHT22;42600;54.408;13.016;2023-07-30T02:38:30;16.90;92.70
420;DHT22;42600;54.408;13.016;2023-07-30T02:40:57;16.90;92.70
420;DHT22;42600;54.408;13.016;2023-07-30T02:43:23;16.90;92.70
420;DHT22;42600;54.408;13.016;2023-07-30T02:45:50;16.80;92.70
420;DHT22;42600;54.408;13.016;2023-07-30T02:48:18;16.80;92.70
420;DHT22;42600;54.408;13.016;2023-07-30T02:50:45;16.80;92.70
420;DHT22;42600;54.408;13.016;2023-07-30T02:53:11;16.60;92.70
420;DHT22;42600;54.408;13.016;2023-07-30T02:55:38;16.60;92.70
420;DHT22;42600;54.408;13.016;2023-07-30T02:58:04;16.50;92.70
420;DHT22;42600;54.408;13.016;2023-07-30T03:00:31;16.50;92.70
420;DHT22;42600;54.408;13.016;2023-07-30T03:02:58;16.50;92.70
420;DHT22;42600;54.408;13.016;2023-07-30T03:05:27;16.50;92.70
420;DHT22;42600;54.408;13.016;2023-07-30T03:07:54;16.50;92.70
420;DHT22;42600;54.408;13.016;2023-07-30T03:10:20;16.50;92.70
420;DHT22;42600;54.408;13.016;2023-07-30T03:12:47;16.50;92.70
420;DHT22;42600;54.408;13.016;2023-07-30T03:15:14;16.50;92.70
420;DHT22;42600;54.408;13.016;2023-07-30T03:17:41;16.60;92.70
420;DHT22;42600;54.408;13.016;2023-07-30T03:20:08;16.60;92.70
420;DHT22;42600;54.408;13.016;2023-07-30T03:22:36;16.50;92.70
420;DHT22;42600;54.408;13.016;2023-07-30T03:25:03;16.30;92.70
420;DHT22;42600;54.408;13.016;2023-07-30T03:27:30;16.40;92.70
420;DHT22;42600;54.408;13.016;2023-07-30T03:29:57;16.40;92.70
420;DHT22;42600;54.408;13.016;2023-07-30T03:32:23;16.40;92.70
420;DHT22;42600;54.408;13.016;2023-07-30T03:34:50;16.40;92.70
420;DHT22;42600;54.408;13.016;2023-07-30T03:37:17;16.20;92.70
420;DHT22;42600;54.408;13.016;2023-07-30T03:39:44;16.20;92.70
420;DHT22;42600;54.408;13.016;2023-07-30T03:42:11;16.20;92.70
420;DHT22;42600;54.408;13.016;2023-07-30T03:44:38;16.30;92.70
420;DHT22;42600;54.408;13.016;2023-07-30T03:47:04;16.30;92.70
420;DHT22;42600;54.408;13.016;2023-07-30T03:49:31;16.30;92.70
420;DHT22;42600;54.408;13.016;2023-07-30T03:51:57;16.30;92.70
420;DHT22;42600;54.408;13.016;2023-07-30T03:54:24;16.20;92.70
420;DHT22;42600;54.408;13.016;2023-07-30T03:56:52;16.20;92.70
420;DHT22;42600;54.408;13.016;2023-07-30T03:59:18;16.30;92.70
420;DHT22;42600;54.408;13.016;2023-07-30T04:01:45;16.30;92.70
420;DHT22;42600;54.408;13.016;2023-07-30T04:04:12;16.30;92.70
420;DHT22;42600;54.408;13.016;2023-07-30T04:06:38;16.40;92.70
420;DHT22;42600;54.408;13.016;2023-07-30T04:09:05;16.30;92.70
420;DHT22;42600;54.408;13.016;2023-07-30T04:11:31;16.30;92.70
420;DHT22;42600;54.408;13.016;2023-07-30T04:13:59;16.50;92.70
420;DHT22;42600;54.408;13.016;2023-07-30T04:16:26;16.60;92.70
420;DHT22;42600;54.408;13.016;2023-07-30T04:18:52;16.70;92.70
420;DHT22;42600;54.408;13.016;2023-07-30T04:21:19;16.80;92.70
420;DHT22;42600;54.408;13.016;2023-07-30T04:23:45;16.90;92.70
420;DHT22;42600;54.408;13.016;2023-07-30T04:26:12;16.90;92.70
420;DHT22;42600;54.408;13.016;2023-07-30T04:28:38;17.00;92.70
420;DHT22;42600;54.408;13.016;2023-07-30T04:31:06;17.20;92.70
420;DHT22;42600;54.408;13.016;2023-07-30T04:33:33;17.30;92.70
420;DHT22;42600;54.408;13.016;2023-07-30T04:35:59;17.40;92.70
420;DHT22;42600;54.408;13.016;2023-07-30T04:38:26;17.40;92.70
420;DHT22;42600;54.408;13.016;2023-07-30T04:40:53;17.50;92.70
420;DHT22;42600;54.408;13.016;2023-07-30T04:43:19;17.60;92.70
420;DHT22;42600;54.408;13.016;2023-07-30T04:45:46;17.70;92.70
420;DHT22;42600;54.408;13.016;2023-07-30T04:48:14;17.70;92.70
420;DHT22;42600;54.408;13.016;2023-07-30T04:50:40;17.80;92.70
420;DHT22;42600;54.408;13.016;2023-07-30T04:53:07;17.70;92.70
420;DHT22;42600;54.408;13.016;2023-07-30T04:55:34;17.80;92.70
420;DHT22;42600;54.408;13.016;2023-07-30T04:58:00;17.70;92.70
420;DHT22;42600;54.408;13.016;2023-07-30T05:00:27;17.70;92.70
420;DHT22;42600;54.408;13.016;2023-07-30T05:02:54;17.70;92.70
420;DHT22;42600;54.408;13.016;2023-07-30T05:05:22;17.80;92.70
420;DHT22;42600;54.408;13.016;2023-07-30T05:07:48;17.80;92.70
420;DHT22;42600;54.408;13.016;2023-07-30T05:10:15;17.80;92.70
420;DHT22;42600;54.408;13.016;2023-07-30T05:12:42;17.80;92.70
420;DHT22;42600;54.408;13.016;2023-07-30T05:15:09;17.80;92.70
420;DHT22;42600;54.408;13.016;2023-07-30T05:17:35;17.80;92.70
420;DHT22;42600;54.408;13.016;2023-07-30T05:20:02;17.80;92.70
420;DHT22;42600;54.408;13.016;2023-07-30T05:22:30;17.80;92.70
420;DHT22;42600;54.408;13.016;2023-07-30T05:24:57;17.80;92.70
420;DHT22;42600;54.408;13.016;2023-07-30T05:27:23;17.80;92.70
420;DHT22;42600;54.408;13.016;2023-07-30T05:29:50;17.70;92.70
420;DHT22;42600;54.408;13.016;2023-07-30T05:32:16;17.70;92.70
420;DHT22;42600;54.408;13.016;2023-07-30T05:34:43;17.70;92.70
420;DHT22;42600;54.408;13.016;2023-07-30T05:37:09;17.80;92.70
420;DHT22;42600;54.408;13.016;2023-07-30T05:39:37;17.80;92.70
420;DHT22;42600;54.408;13.016;2023-07-30T05:42:04;17.80;92.70
420;DHT22;42600;54.408;13.016;2023-07-30T05:44:31;17.80;92.70
420;DHT22;42600;54.408;13.016;2023-07-30T05:46:57;17.80;92.70
420;DHT22;42600;54.408;13.016;2023-07-30T05:49:24;17.80;92.70
420;DHT22;42600;54.408;13.016;2023-07-30T05:51:51;17.90;92.70
420;DHT22;42600;54.408;13.016;2023-07-30T05:54:18;17.90;92.70
420;DHT22;42600;54.408;13.016;2023-07-30T05:56:45;17.90;92.70
420;DHT22;42600;54.408;13.016;2023-07-30T05:59:12;17.90;92.70
420;DHT22;42600;54.408;13.016;2023-07-30T06:01:39;17.90;92.70
420;DHT22;42600;54.408;13.016;2023-07-30T06:04:06;18.00;92.70
420;DHT22;42600;54.408;13.016;2023-07-30T06:06:33;18.00;92.70
420;DHT22;42600;54.408;13.016;2023-07-30T06:08:59;18.10;92.70
420;DHT22;42600;54.408;13.016;2023-07-30T06:11:26;18.20;92.70
420;DHT22;42600;54.408;13.016;2023-07-30T06:13:54;18.30;92.70
420;DHT22;42600;54.408;13.016;2023-07-30T06:16:21;18.40;92.70
420;DHT22;42600;54.408;13.016;2023-07-30T06:18:47;18.50;92.70
420;DHT22;42600;54.408;13.016;2023-07-30T06:21:14;18.60;92.50
420;DHT22;42600;54.408;13.016;2023-07-30T06:23:41;18.70;92.50
420;DHT22;42600;54.408;13.016;2023-07-30T06:26:07;18.90;92.10
420;DHT22;42600;54.408;13.016;2023-07-30T06:28:34;19.10;91.70
420;DHT22;42600;54.408;13.016;2023-07-30T06:31:02;19.10;91.60
420;DHT22;42600;54.408;13.016;2023-07-30T06:33:29;19.20;91.70
420;DHT22;42600;54.408;13.016;2023-07-30T06:35:55;19.30;91.70
420;DHT22;42600;54.408;13.016;2023-07-30T06:38:22;19.40;91.30
420;DHT22;42600;54.408;13.016;2023-07-30T06:40:49;19.60;91.30
420;DHT22;42600;54.408;13.016;2023-07-30T06:43:15;19.70;91.10
420;DHT22;42600;54.408;13.016;2023-07-30T06:45:42;19.70;90.80
420;DHT22;42600;54.408;13.016;2023-07-30T06:48:10;19.80;90.70
420;DHT22;42600;54.408;13.016;2023-07-30T06:50:37;19.90;90.40
420;DHT22;42600;54.408;13.016;2023-07-30T06:53:03;20.00;90.20
420;DHT22;42600;54.408;13.016;2023-07-30T06:55:30;20.10;90.00
420;DHT22;42600;54.408;13.016;2023-07-30T06:57:56;20.20;89.50
420;DHT22;42600;54.408;13.016;2023-07-30T07:00:23;20.40;89.60
420;DHT22;42600;54.408;13.016;2023-07-30T07:02:49;20.50;88.60
420;DHT22;42600;54.408;13.016;2023-07-30T07:05:17;20.50;88.40
420;DHT22;42600;54.408;13.016;2023-07-30T07:07:45;20.60;87.90
420;DHT22;42600;54.408;13.016;2023-07-30T07:10:12;20.60;87.60
420;DHT22;42600;54.408;13.016;2023-07-30T07:12:39;20.70;87.50
420;DHT22;42600;54.408;13.016;2023-07-30T07:15:06;20.70;87.40
420;DHT22;42600;54.408;13.016;2023-07-30T07:17:33;20.80;87.10
420;DHT22;42600;54.408;13.016;2023-07-30T07:20:00;20.90;86.90
420;DHT22;42600;54.408;13.016;2023-07-30T07:22:30;20.90;86.40
420;DHT22;42600;54.408;13.016;2023-07-30T07:24:57;20.90;85.60
420;DHT22;42600;54.408;13.016;2023-07-30T07:27:23;21.00;85.30
420;DHT22;42600;54.408;13.016;2023-07-30T07:29:50;21.10;85.10
420;DHT22;42600;54.408;13.016;2023-07-30T07:32:17;21.10;85.00
420;DHT22;42600;54.408;13.016;2023-07-30T07:34:45;21.20;85.10
420;DHT22;42600;54.408;13.016;2023-07-30T07:37:12;21.30;85.00
420;DHT22;42600;54.408;13.016;2023-07-30T07:39:41;21.30;84.30
420;DHT22;42600;54.408;13.016;2023-07-30T07:42:08;21.40;84.70
420;DHT22;42600;54.408;13.016;2023-07-30T07:44:35;21.40;84.40
420;DHT22;42600;54.408;13.016;2023-07-30T07:47:02;21.30;84.30
420;DHT22;42600;54.408;13.016;2023-07-30T07:49:29;21.30;84.60
420;DHT22;42600;54.408;13.016;2023-07-30T07:51:56;21.40;84.90
420;DHT22;42600;54.408;13.016;2023-07-30T07:54:23;21.40;84.60
420;DHT22;42600;54.408;13.016;2023-07-30T07:56:51;21.40;84.90
420;DHT22;42600;54.408;13.016;2023-07-30T07:59:17;21.40;84.70
420;DHT22;42600;54.408;13.016;2023-07-30T08:01:44;21.40;84.50
420;DHT22;42600;54.408;13.016;2023-07-30T08:04:10;21.50;84.50
420;DHT22;42600;54.408;13.016;2023-07-30T08:06:37;21.50;84.30
420;DHT22;42600;54.408;13.016;2023-07-30T08:09:03;21.60;84.50
420;DHT22;42600;54.408;13.016;2023-07-30T08:11:30;21.60;84.20
420;DHT22;42600;54.408;13.016;2023-07-30T08:13:58;21.70;84.30
420;DHT22;42600;54.408;13.016;2023-07-30T08:16:24;21.70;84.00
420;DHT22;42600;54.408;13.016;2023-07-30T08:18:51;21.70;83.50
420;DHT22;42600;54.408;13.016;2023-07-30T08:21:18;21.80;83.70
420;DHT22;42600;54.408;13.016;2023-07-30T08:23:46;21.90;83.80
420;DHT22;42600;54.408;13.016;2023-07-30T08:26:12;21.90;83.60
420;DHT22;42600;54.408;13.016;2023-07-30T08:28:39;22.00;83.80
420;DHT22;42600;54.408;13.016;2023-07-30T08:31:07;22.00;83.80
420;DHT22;42600;54.408;13.016;2023-07-30T08:33:33;22.00;84.10
420;DHT22;42600;54.408;13.016;2023-07-30T08:36:00;22.10;84.10
420;DHT22;42600;54.408;13.016;2023-07-30T08:38:28;22.00;84.10
420;DHT22;42600;54.408;13.016;2023-07-30T08:40:55;22.00;84.10
420;DHT22;42600;54.408;13.016;2023-07-30T08:43:21;22.00;83.50
420;DHT22;42600;54.408;13.016;2023-07-30T08:45:48;22.00;83.90
420;DHT22;42600;54.408;13.016;2023-07-30T08:48:16;21.90;82.90
420;DHT22;42600;54.408;13.016;2023-07-30T08:50:43;21.80;83.20
420;DHT22;42600;54.408;13.016;2023-07-30T08:53:10;21.80;83.20
420;DHT22;42600;54.408;13.016;2023-07-30T08:55:39;21.70;83.10
420;DHT22;42600;54.408;13.016;2023-07-30T08:58:06;21.80;83.40
420;DHT22;42600;54.408;13.016;2023-07-30T09:00:35;21.70;83.60
420;DHT22;42600;54.408;13.016;2023-07-30T09:03:04;21.70;83.50
420;DHT22;42600;54.408;13.016;2023-07-30T09:05:32;21.80;82.80
420;DHT22;42600;54.408;13.016;2023-07-30T09:07:59;22.00;82.90
420;DHT22;42600;54.408;13.016;2023-07-30T09:10:26;22.10;82.60
420;DHT22;42600;54.408;13.016;2023-07-30T09:12:53;22.10;81.70
420;DHT22;42600;54.408;13.016;2023-07-30T09:15:29;22.20;80.80
420;DHT22;42600;54.408;13.016;2023-07-30T09:17:57;22.30;80.20
420;DHT22;42600;54.408;13.016;2023-07-30T09:20:24;22.40;80.20
420;DHT22;42600;54.408;13.016;2023-07-30T09:22:51;22.60;80.00
420;DHT22;42600;54.408;13.016;2023-07-30T09:25:18;22.70;79.90
420;DHT22;42600;54.408;13.016;2023-07-30T09:27:47;22.80;79.80
420;DHT22;42600;54.408;13.016;2023-07-30T09:30:14;22.90;79.60
420;DHT22;42600;54.408;13.016;2023-07-30T09:32:41;23.00;79.90
420;DHT22;42600;54.408;13.016;2023-07-30T09:35:09;23.20;79.40
420;DHT22;42600;54.408;13.016;2023-07-30T09:37:37;23.30;79.30
420;DHT22;42600;54.408;13.016;2023-07-30T09:40:07;23.40;78.90
420;DHT22;42600;54.408;13.016;2023-07-30T09:42:35;23.50;78.90
420;DHT22;42600;54.408;13.016;2023-07-30T09:45:05;23.50;78.20
420;DHT22;42600;54.408;13.016;2023-07-30T09:47:33;23.50;78.40
420;DHT22;42600;54.408;13.016;2023-07-30T09:50:01;23.50;78.60
420;DHT22;42600;54.408;13.016;2023-07-30T09:52:28;23.50;78.60
420;DHT22;42600;54.408;13.016;2023-07-30T09:54:56;23.50;79.40
420;DHT22;42600;54.408;13.016;2023-07-30T09:57:25;23.60;79.50
420;DHT22;42600;54.408;13.016;2023-07-30T09:59:51;23.50;78.60
420;DHT22;42600;54.408;13.016;2023-07-30T10:02:18;23.60;79.40
420;DHT22;42600;54.408;13.016;2023-07-30T10:04:49;23.70;79.00
420;DHT22;42600;54.408;13.016;2023-07-30T10:07:20;23.80;78.90
420;DHT22;42600;54.408;13.016;2023-07-30T10:09:48;23.90;78.80
420;DHT22;42600;54.408;13.016;2023-07-30T10:12:22;23.90;78.00
420;DHT22;42600;54.408;13.016;2023-07-30T10:14:50;24.00;78.50
420;DHT22;42600;54.408;13.016;2023-07-30T10:17:17;24.10;78.70
420;DHT22;42600;54.408;13.016;2023-07-30T10:19:46;24.10;78.00
420;DHT22;42600;54.408;13.016;2023-07-30T10:22:22;24.10;76.80
420;DHT22;42600;54.408;13.016;2023-07-30T10:24:57;24.00;77.70
420;DHT22;42600;54.408;13.016;2023-07-30T10:27:25;23.90;77.20
420;DHT22;42600;54.408;13.016;2023-07-30T10:30:09;23.90;78.10
420;DHT22;42600;54.408;13.016;2023-07-30T10:32:40;23.80;78.20
420;DHT22;42600;54.408;13.016;2023-07-30T10:35:07;23.80;77.20
420;DHT22;42600;54.408;13.016;2023-07-30T10:37:33;23.60;77.20
420;DHT22;42600;54.408;13.016;2023-07-30T10:40:00;23.60;76.70
420;DHT22;42600;54.408;13.016;2023-07-30T10:42:33;23.60;76.70
420;DHT22;42600;54.408;13.016;2023-07-30T10:45:00;23.70;75.70
420;DHT22;42600;54.408;13.016;2023-07-30T10:47:28;23.70;75.60
420;DHT22;42600;54.408;13.016;2023-07-30T10:49:54;23.80;75.10
420;DHT22;42600;54.408;13.016;2023-07-30T10:52:26;23.80;75.40
420;DHT22;42600;54.408;13.016;2023-07-30T10:55:00;23.80;74.90
420;DHT22;42600;54.408;13.016;2023-07-30T10:57:30;23.90;75.10
420;DHT22;42600;54.408;13.016;2023-07-30T10:59:57;24.00;74.70
420;DHT22;42600;54.408;13.016;2023-07-30T11:02:23;24.10;74.20
420;DHT22;42600;54.408;13.016;2023-07-30T11:04:51;24.20;74.20
420;DHT22;42600;54.408;13.016;2023-07-30T11:07:18;24.30;73.70
420;DHT22;42600;54.408;13.016;2023-07-30T11:09:45;24.30;73.90
420;DHT22;42600;54.408;13.016;2023-07-30T11:12:11;24.40;73.30
420;DHT22;42600;54.408;13.016;2023-07-30T11:14:40;24.40;74.00
420;DHT22;42600;54.408;13.016;2023-07-30T11:17:06;24.50;73.50
420;DHT22;42600;54.408;13.016;2023-07-30T11:19:33;24.50;73.10
420;DHT22;42600;54.408;13.016;2023-07-30T11:22:01;24.50;73.50
420;DHT22;42600;54.408;13.016;2023-07-30T11:24:34;24.60;73.20
420;DHT22;42600;54.408;13.016;2023-07-30T11:27:01;24.60;73.30
420;DHT22;42600;54.408;13.016;2023-07-30T11:29:28;24.70;73.00
420;DHT22;42600;54.408;13.016;2023-07-30T11:31:56;24.80;73.40
420;DHT22;42600;54.408;13.016;2023-07-30T11:34:23;24.80;73.30
420;DHT22;42600;54.408;13.016;2023-07-30T11:36:50;24.80;72.70
420;DHT22;42600;54.408;13.016;2023-07-30T11:39:18;24.90;72.50
420;DHT22;42600;54.408;13.016;2023-07-30T11:41:45;25.00;72.50
420;DHT22;42600;54.408;13.016;2023-07-30T11:44:30;25.00;71.70
420;DHT22;42600;54.408;13.016;2023-07-30T11:46:56;25.00;71.80
420;DHT22;42600;54.408;13.016;2023-07-30T11:49:23;25.00;73.00
420;DHT22;42600;54.408;13.016;2023-07-30T11:51:50;25.00;72.50
420;DHT22;42600;54.408;13.016;2023-07-30T11:54:22;25.10;72.20
420;DHT22;42600;54.408;13.016;2023-07-30T11:56:54;25.10;71.50
420;DHT22;42600;54.408;13.016;2023-07-30T11:59:21;25.10;70.90
420;DHT22;42600;54.408;13.016;2023-07-30T12:01:48;25.10;71.60
420;DHT22;42600;54.408;13.016;2023-07-30T12:04:14;25.10;70.10
420;DHT22;42600;54.408;13.016;2023-07-30T12:06:42;25.10;69.30
420;DHT22;42600;54.408;13.016;2023-07-30T12:09:13;25.10;69.50
420;DHT22;42600;54.408;13.016;2023-07-30T12:11:52;25.10;69.10
420;DHT22;42600;54.408;13.016;2023-07-30T12:14:21;25.10;70.20
420;DHT22;42600;54.408;13.016;2023-07-30T12:16:48;25.20;68.90
420;DHT22;42600;54.408;13.016;2023-07-30T12:19:14;25.20;67.60
420;DHT22;42600;54.408;13.016;2023-07-30T12:21:41;25.20;68.30
420;DHT22;42600;54.408;13.016;2023-07-30T12:24:07;25.20;68.50
420;DHT22;42600;54.408;13.016;2023-07-30T12:26:34;25.20;68.40
420;DHT22;42600;54.408;13.016;2023-07-30T12:29:02;25.10;69.20
420;DHT22;42600;54.408;13.016;2023-07-30T12:31:29;25.20;69.50
420;DHT22;42600;54.408;13.016;2023-07-30T12:33:55;25.20;68.90
420;DHT22;42600;54.408;13.016;2023-07-30T12:36:22;25.20;68.60
420;DHT22;42600;54.408;13.016;2023-07-30T12:38:48;25.20;68.10
420;DHT22;42600;54.408;13.016;2023-07-30T12:41:17;25.20;67.50
420;DHT22;42600;54.408;13.016;2023-07-30T12:43:44;25.20;67.90
420;DHT22;42600;54.408;13.016;2023-07-30T12:46:12;25.20;67.40
420;DHT22;42600;54.408;13.016;2023-07-30T12:48:39;25.20;67.40
420;DHT22;42600;54.408;13.016;2023-07-30T12:51:05;25.20;66.60
420;DHT22;42600;54.408;13.016;2023-07-30T12:53:32;25.10;65.20
420;DHT22;42600;54.408;13.016;2023-07-30T12:55:59;25.10;67.00
420;DHT22;42600;54.408;13.016;2023-07-30T12:58:25;25.20;65.50
420;DHT22;42600;54.408;13.016;2023-07-30T13:00:51;25.10;65.20
420;DHT22;42600;54.408;13.016;2023-07-30T13:03:19;25.20;63.70
420;DHT22;42600;54.408;13.016;2023-07-30T13:05:46;25.10;63.30
420;DHT22;42600;54.408;13.016;2023-07-30T13:08:12;25.10;64.30
420;DHT22;42600;54.408;13.016;2023-07-30T13:10:39;25.10;64.70
420;DHT22;42600;54.408;13.016;2023-07-30T13:13:05;25.10;64.60
420;DHT22;42600;54.408;13.016;2023-07-30T13:15:32;25.20;64.50
420;DHT22;42600;54.408;13.016;2023-07-30T13:17:58;25.10;64.50
420;DHT22;42600;54.408;13.016;2023-07-30T13:20:26;25.10;64.60
420;DHT22;42600;54.408;13.016;2023-07-30T13:22:53;25.10;64.30
420;DHT22;42600;54.408;13.016;2023-07-30T13:25:19;25.10;64.80
420;DHT22;42600;54.408;13.016;2023-07-30T13:27:46;25.10;64.60
420;DHT22;42600;54.408;13.016;2023-07-30T13:30:13;25.00;65.30
420;DHT22;42600;54.408;13.016;2023-07-30T13:32:39;25.10;65.10
420;DHT22;42600;54.408;13.016;2023-07-30T13:35:06;25.10;65.30
420;DHT22;42600;54.408;13.016;2023-07-30T13:37:34;25.10;65.00
420;DHT22;42600;54.408;13.016;2023-07-30T13:40:01;25.20;65.40
420;DHT22;42600;54.408;13.016;2023-07-30T13:42:27;25.10;65.50
420;DHT22;42600;54.408;13.016;2023-07-30T13:44:54;25.20;65.20
420;DHT22;42600;54.408;13.016;2023-07-30T13:47:20;25.10;65.20
420;DHT22;42600;54.408;13.016;2023-07-30T13:49:47;25.00;65.90
420;DHT22;42600;54.408;13.016;2023-07-30T13:52:13;25.00;64.50
420;DHT22;42600;54.408;13.016;2023-07-30T13:54:41;24.90;65.60
420;DHT22;42600;54.408;13.016;2023-07-30T13:57:10;24.90;66.60
420;DHT22;42600;54.408;13.016;2023-07-30T13:59:37;24.90;66.00
420;DHT22;42600;54.408;13.016;2023-07-30T14:02:05;24.90;65.90
420;DHT22;42600;54.408;13.016;2023-07-30T14:04:32;24.80;66.30
420;DHT22;42600;54.408;13.016;2023-07-30T14:06:58;24.80;66.90
420;DHT22;42600;54.408;13.016;2023-07-30T14:09:25;24.70;67.40
420;DHT22;42600;54.408;13.016;2023-07-30T14:11:59;24.70;67.80
420;DHT22;42600;54.408;13.016;2023-07-30T14:14:26;24.70;67.70
420;DHT22;42600;54.408;13.016;2023-07-30T14:16:53;24.60;67.40
420;DHT22;42600;54.408;13.016;2023-07-30T14:19:19;24.30;71.60
420;DHT22;42600;54.408;13.016;2023-07-30T14:21:46;23.90;74.00
420;DHT22;42600;54.408;13.016;2023-07-30T14:24:13;23.40;75.90
420;DHT22;42600;54.408;13.016;2023-07-30T14:26:39;23.00;76.40
420;DHT22;42600;54.408;13.016;2023-07-30T14:29:07;22.60;77.00
420;DHT22;42600;54.408;13.016;2023-07-30T14:31:33;22.60;76.70
420;DHT22;42600;54.408;13.016;2023-07-30T14:34:00;22.30;77.80
420;DHT22;42600;54.408;13.016;2023-07-30T14:36:27;21.90;78.60
420;DHT22;42600;54.408;13.016;2023-07-30T14:38:53;22.00;79.20
420;DHT22;42600;54.408;13.016;2023-07-30T14:41:20;21.90;80.30
420;DHT22;42600;54.408;13.016;2023-07-30T14:43:46;21.70;81.80
420;DHT22;42600;54.408;13.016;2023-07-30T14:46:14;21.60;81.60
420;DHT22;42600;54.408;13.016;2023-07-30T14:48:41;21.70;80.30
420;DHT22;42600;54.408;13.016;2023-07-30T14:51:09;21.70;81.30
420;DHT22;42600;54.408;13.016;2023-07-30T14:53:35;21.70;83.50
420;DHT22;42600;54.408;13.016;2023-07-30T14:56:02;21.80;84.10
420;DHT22;42600;54.408;13.016;2023-07-30T14:58:29;21.50;84.40
420;DHT22;42600;54.408;13.016;2023-07-30T15:00:55;21.70;82.90
420;DHT22;42600;54.408;13.016;2023-07-30T15:03:23;21.80;83.50
420;DHT22;42600;54.408;13.016;2023-07-30T15:05:50;21.90;83.30
420;DHT22;42600;54.408;13.016;2023-07-30T15:08:17;22.10;83.00
420;DHT22;42600;54.408;13.016;2023-07-30T15:10:43;21.90;83.60
420;DHT22;42600;54.408;13.016;2023-07-30T15:13:10;21.80;84.70
420;DHT22;42600;54.408;13.016;2023-07-30T15:15:36;21.70;85.80
420;DHT22;42600;54.408;13.016;2023-07-30T15:18:03;21.60;86.40
420;DHT22;42600;54.408;13.016;2023-07-30T15:20:34;21.80;85.30
420;DHT22;42600;54.408;13.016;2023-07-30T15:23:00;21.80;84.80
420;DHT22;42600;54.408;13.016;2023-07-30T15:25:27;21.90;84.40
420;DHT22;42600;54.408;13.016;2023-07-30T15:27:53;21.80;84.70
420;DHT22;42600;54.408;13.016;2023-07-30T15:30:20;21.90;84.90
420;DHT22;42600;54.408;13.016;2023-07-30T15:32:47;22.10;83.90
420;DHT22;42600;54.408;13.016;2023-07-30T15:35:13;22.10;83.80
420;DHT22;42600;54.408;13.016;2023-07-30T15:37:42;21.90;85.30
420;DHT22;42600;54.408;13.016;2023-07-30T15:40:09;21.80;86.00
420;DHT22;42600;54.408;13.016;2023-07-30T15:42:35;21.70;85.60
420;DHT22;42600;54.408;13.016;2023-07-30T15:45:03;21.90;83.90